Time;durP1;ratioP1;P1;durP2;ratioP2;P2;SDS_P1;SDS_P2;PMS_P1;PMS_P2;Temp;Humidity;BMP_temperature;BMP_pressure;BME280_temperature;BME280_humidity;BME280_pressure;Samples;Min_cycle;Max_cycle;Signal;HPM_P1;HPM_P2
2021/09/08 00:01:28;;;;;;;18.13;12.45;;;15.10;99.90;;;;;;5076355;28;20024;-69
2021/09/08 00:03:54;;;;;;;17.98;12.73;;;15.00;99.90;;;;;;5094268;28;20032;-70
2021/09/08 00:06:19;;;;;;;17.55;12.65;;;14.90;99.90;;;;;;5092438;28;20396;-70
2021/09/08 00:08:45;;;;;;;19.00;12.68;;;14.90;99.90;;;;;;5093767;28;20020;-70
2021/09/08 00:11:10;;;;;;;20.15;13.35;;;14.80;99.90;;;;;;5094185;28;20107;-70
2021/09/08 00:13:36;;;;;;;22.30;14.23;;;14.70;99.90;;;;;;5093374;28;20073;-71
2021/09/08 00:16:01;;;;;;;20.42;14.50;;;14.70;99.90;;;;;;5094156;28;20023;-71
2021/09/08 00:18:27;;;;;;;21.13;14.10;;;14.70;99.90;;;;;;5094133;28;20454;-71
2021/09/08 00:20:52;;;;;;;19.50;13.57;;;14.80;99.90;;;;;;5094117;28;20028;-71
2021/09/08 00:23:18;;;;;;;18.90;13.55;;;14.80;99.90;;;;;;5092900;28;20025;-70
2021/09/08 00:25:44;;;;;;;22.02;15.18;;;14.90;99.90;;;;;;5092264;28;20032;-71
2021/09/08 00:28:09;;;;;;;23.65;14.45;;;14.90;99.90;;;;;;5094051;28;20024;-70
2021/09/08 00:30:35;;;;;;;22.60;14.45;;;14.90;99.90;;;;;;5093741;28;20027;-70
2021/09/08 00:33:00;;;;;;;24.70;13.52;;;14.90;99.90;;;;;;5093637;28;20024;-71
2021/09/08 00:35:26;;;;;;;19.95;13.70;;;14.90;99.90;;;;;;5093681;28;20036;-70
2021/09/08 00:37:52;;;;;;;20.55;14.07;;;14.90;99.90;;;;;;5093385;28;20031;-70
2021/09/08 00:40:17;;;;;;;20.05;14.32;;;14.90;99.90;;;;;;5093630;28;20105;-70
2021/09/08 00:42:44;;;;;;;21.88;12.82;;;14.90;99.90;;;;;;5093642;28;20420;-70
2021/09/08 00:45:10;;;;;;;20.75;12.27;;;14.80;99.90;;;;;;5092587;28;20426;-70
2021/09/08 00:47:36;;;;;;;20.70;12.95;;;14.80;99.90;;;;;;5093250;28;20028;-70
2021/09/08 00:50:02;;;;;;;20.58;13.27;;;14.70;99.90;;;;;;5092684;28;20158;-70
2021/09/08 00:52:29;;;;;;;19.48;12.70;;;14.70;99.90;;;;;;5092256;28;20024;-70
2021/09/08 00:54:56;;;;;;;21.27;13.93;;;14.60;99.90;;;;;;5092303;28;20081;-71
2021/09/08 00:57:22;;;;;;;17.88;12.32;;;14.60;99.90;;;;;;5093780;28;20062;-70
2021/09/08 00:59:48;;;;;;;17.25;12.05;;;14.50;99.90;;;;;;5093732;28;20067;-71
2021/09/08 01:02:13;;;;;;;19.58;12.85;;;14.50;99.90;;;;;;5093689;28;20032;-70
2021/09/08 01:04:40;;;;;;;24.08;14.35;;;14.30;99.90;;;;;;5093434;28;20481;-70
2021/09/08 01:07:07;;;;;;;18.27;13.18;;;14.20;99.90;;;;;;5093629;28;20024;-70
2021/09/08 01:09:34;;;;;;;19.60;12.25;;;14.20;99.90;;;;;;5093652;28;20074;-69
2021/09/08 01:12:00;;;;;;;17.70;12.30;;;14.10;99.90;;;;;;5093369;28;20024;-70
2021/09/08 01:14:27;;;;;;;16.50;12.38;;;14.00;99.90;;;;;;5092055;28;20032;-70
2021/09/08 01:16:55;;;;;;;13.98;11.10;;;14.00;99.90;;;;;;5093574;28;20024;-71
2021/09/08 01:19:21;;;;;;;17.42;12.00;;;14.00;99.90;;;;;;5093330;28;20107;-69
2021/09/08 01:21:48;;;;;;;18.20;12.18;;;13.90;99.90;;;;;;5097052;28;20433;-69
2021/09/08 01:24:14;;;;;;;17.77;11.82;;;13.90;99.90;;;;;;5079013;28;20032;-70
2021/09/08 01:26:43;;;;;;;20.35;12.68;;;13.80;99.90;;;;;;5097147;28;20092;-69
2021/09/08 01:29:09;;;;;;;17.63;12.52;;;13.80;99.90;;;;;;5097131;28;20107;-70
2021/09/08 01:31:35;;;;;;;18.67;12.40;;;13.80;99.90;;;;;;5095610;28;20488;-70
2021/09/08 01:34:02;;;;;;;20.20;12.95;;;13.70;99.90;;;;;;5096723;28;20024;-70
2021/09/08 01:36:28;;;;;;;17.60;12.57;;;13.70;99.90;;;;;;5095742;28;20111;-70
2021/09/08 01:38:53;;;;;;;23.77;13.98;;;13.60;99.90;;;;;;5096925;28;20050;-70
2021/09/08 01:41:19;;;;;;;20.75;13.63;;;13.60;99.90;;;;;;5095690;28;20024;-69
2021/09/08 01:43:45;;;;;;;19.73;13.48;;;13.50;99.90;;;;;;5096805;28;20051;-69
2021/09/08 01:46:26;;;;;;;20.42;14.65;;;13.40;99.90;;;;;;5096212;28;20028;-70
2021/09/08 01:48:52;;;;;;;24.15;14.65;;;13.40;99.90;;;;;;5096703;28;20028;-70
2021/09/08 01:51:17;;;;;;;25.60;15.70;;;13.40;99.90;;;;;;5096704;28;20028;-70
2021/09/08 01:53:43;;;;;;;22.33;15.73;;;13.30;99.90;;;;;;5096562;28;20038;-70
2021/09/08 01:56:09;;;;;;;20.45;14.20;;;13.30;99.90;;;;;;5096307;28;20381;-70
2021/09/08 01:58:35;;;;;;;20.98;14.68;;;13.30;99.90;;;;;;5096535;28;20020;-69
2021/09/08 02:01:02;;;;;;;18.38;12.70;;;13.30;99.90;;;;;;5095944;28;20028;-70
2021/09/08 02:03:27;;;;;;;22.77;14.50;;;13.20;99.90;;;;;;5096407;28;20024;-70
2021/09/08 02:05:53;;;;;;;20.33;13.63;;;13.20;99.90;;;;;;5096383;28;20105;-69
2021/09/08 02:08:18;;;;;;;23.75;15.68;;;13.10;99.90;;;;;;5094888;28;20043;-70
2021/09/08 02:10:44;;;;;;;20.20;14.95;;;13.10;99.90;;;;;;5095758;28;20035;-70
2021/09/08 02:13:10;;;;;;;22.85;14.85;;;13.10;99.90;;;;;;5095730;28;20453;-69
2021/09/08 02:15:35;;;;;;;20.52;14.63;;;13.00;99.90;;;;;;5095905;28;20023;-70
2021/09/08 02:18:01;;;;;;;19.15;13.80;;;13.00;99.90;;;;;;5096193;28;20020;-69
2021/09/08 02:20:26;;;;;;;23.13;15.07;;;13.00;99.90;;;;;;5095856;28;20024;-69
2021/09/08 02:22:52;;;;;;;25.58;15.77;;;13.00;99.90;;;;;;5095797;28;20095;-70
2021/09/08 02:25:18;;;;;;;27.35;16.90;;;12.90;99.90;;;;;;5095763;28;20032;-69
2021/09/08 02:27:43;;;;;;;25.48;16.17;;;12.90;99.90;;;;;;5094238;28;20481;-70
2021/09/08 02:30:10;;;;;;;26.70;16.02;;;12.80;99.90;;;;;;5095911;28;20028;-69
2021/09/08 02:32:35;;;;;;;27.27;16.67;;;12.80;99.90;;;;;;5093968;28;20103;-69
2021/09/08 02:35:01;;;;;;;24.15;15.93;;;12.80;99.90;;;;;;5095824;28;20098;-69
2021/09/08 02:37:27;;;;;;;25.33;16.17;;;12.70;99.90;;;;;;5095515;28;20045;-70
2021/09/08 02:39:52;;;;;;;23.80;16.35;;;12.70;99.90;;;;;;5095452;28;20049;-70
2021/09/08 02:42:18;;;;;;;25.17;16.10;;;12.70;99.90;;;;;;5093948;28;20052;-69
2021/09/08 02:44:44;;;;;;;23.77;15.52;;;12.60;99.90;;;;;;5095368;28;20024;-69
2021/09/08 02:47:11;;;;;;;24.85;15.48;;;12.60;99.90;;;;;;5095594;28;20103;-69
2021/09/08 02:49:37;;;;;;;25.25;15.55;;;12.60;99.90;;;;;;5095520;28;20020;-70
2021/09/08 02:52:03;;;;;;;25.38;16.70;;;12.60;99.90;;;;;;5095496;28;20043;-70
2021/09/08 02:54:28;;;;;;;25.60;17.25;;;12.60;99.90;;;;;;5095373;28;20024;-69
2021/09/08 02:56:54;;;;;;;29.05;17.40;;;12.60;99.90;;;;;;5095397;28;20024;-69
2021/09/08 02:59:19;;;;;;;31.73;18.85;;;12.60;99.90;;;;;;5094783;28;20016;-70
2021/09/08 03:01:45;;;;;;;24.05;16.52;;;12.60;99.90;;;;;;5093496;28;20024;-69
2021/09/08 03:04:10;;;;;;;24.08;16.17;;;12.60;99.90;;;;;;5095213;28;20073;-69
2021/09/08 03:06:36;;;;;;;25.70;16.42;;;12.50;99.90;;;;;;5093366;28;20363;-69
2021/09/08 03:09:02;;;;;;;26.70;17.30;;;12.50;99.90;;;;;;5093353;28;20024;-69
2021/09/08 03:11:27;;;;;;;26.02;16.33;;;12.50;99.90;;;;;;5076486;28;20027;-69
2021/09/08 03:13:54;;;;;;;28.45;17.83;;;12.50;99.90;;;;;;5094665;28;20393;-70
2021/09/08 03:16:20;;;;;;;29.05;19.20;;;12.40;99.90;;;;;;5093512;28;20023;-70
2021/09/08 03:18:45;;;;;;;26.85;17.52;;;12.40;99.90;;;;;;5095003;28;20025;-70
2021/09/08 03:21:11;;;;;;;25.27;16.75;;;12.40;99.90;;;;;;5093722;28;20480;-70
2021/09/08 03:23:36;;;;;;;27.85;17.40;;;12.40;99.90;;;;;;5093106;28;20024;-69
2021/09/08 03:26:02;;;;;;;26.05;17.25;;;12.40;99.90;;;;;;5094881;28;20035;-70
2021/09/08 03:28:27;;;;;;;21.98;15.90;;;12.30;99.90;;;;;;5094826;28;20031;-70
2021/09/08 03:30:53;;;;;;;24.40;16.77;;;12.30;99.90;;;;;;5094775;28;20373;-70
2021/09/08 03:33:19;;;;;;;32.53;19.42;;;12.30;99.90;;;;;;5094091;28;20085;-69
2021/09/08 03:35:44;;;;;;;29.90;19.02;;;12.20;99.90;;;;;;5093255;28;20032;-69
2021/09/08 03:38:11;;;;;;;33.00;20.08;;;12.20;99.90;;;;;;5094403;28;20397;-70
2021/09/08 03:40:36;;;;;;;28.27;18.15;;;12.20;99.90;;;;;;5094584;28;20073;-69
2021/09/08 03:43:03;;;;;;;29.35;19.52;;;12.20;99.90;;;;;;5094201;28;20028;-69
2021/09/08 03:45:28;;;;;;;31.00;19.27;;;12.20;99.90;;;;;;5092721;28;20093;-70
2021/09/08 03:47:54;;;;;;;29.30;19.88;;;12.20;99.90;;;;;;5094221;28;20485;-70
2021/09/08 03:50:19;;;;;;;30.40;19.70;;;12.10;99.90;;;;;;5094456;28;20370;-70
2021/09/08 03:52:45;;;;;;;27.45;18.45;;;12.10;99.90;;;;;;5094088;28;20070;-69
2021/09/08 03:55:11;;;;;;;28.48;18.38;;;12.00;99.90;;;;;;5094417;28;20020;-70
2021/09/08 03:57:36;;;;;;;30.52;19.63;;;12.10;99.90;;;;;;5094353;28;20319;-70
2021/09/08 04:00:05;;;;;;;32.85;20.55;;;12.00;99.90;;;;;;5093804;28;20107;-70
2021/09/08 04:02:31;;;;;;;31.25;20.38;;;12.00;99.90;;;;;;5093132;28;20453;-70
2021/09/08 04:04:58;;;;;;;38.08;23.02;;;12.00;99.90;;;;;;5093979;28;20031;-70
2021/09/08 04:07:25;;;;;;;30.48;19.85;;;11.90;99.90;;;;;;5094249;28;20024;-69
2021/09/08 04:09:50;;;;;;;32.75;19.88;;;11.90;99.90;;;;;;5094234;28;20020;-70
2021/09/08 04:12:16;;;;;;;33.30;19.60;;;11.90;99.90;;;;;;5092591;28;20078;-70
2021/09/08 04:14:41;;;;;;;33.42;21.10;;;11.90;99.90;;;;;;5094149;28;20016;-69
2021/09/08 04:17:07;;;;;;;28.52;19.23;;;11.90;99.90;;;;;;5093838;28;20032;-69
2021/09/08 04:19:33;;;;;;;29.92;19.13;;;11.90;99.90;;;;;;5093546;28;20027;-69
2021/09/08 04:21:58;;;;;;;26.50;17.95;;;11.90;99.90;;;;;;5094085;28;20024;-69
2021/09/08 04:24:24;;;;;;;29.15;17.80;;;11.80;99.90;;;;;;5092330;28;20043;-69
2021/09/08 04:26:49;;;;;;;32.60;19.20;;;11.80;99.90;;;;;;5094054;28;20028;-69
2021/09/08 04:29:15;;;;;;;28.95;18.27;;;11.80;99.90;;;;;;5094000;28;20036;-69
2021/09/08 04:31:40;;;;;;;30.27;18.98;;;11.80;99.90;;;;;;5093437;28;20111;-70
2021/09/08 04:34:07;;;;;;;34.70;21.58;;;11.80;99.90;;;;;;5093893;28;20028;-70
2021/09/08 04:36:33;;;;;;;38.70;22.85;;;11.80;99.90;;;;;;5093957;28;20579;-69
2021/09/08 04:38:59;;;;;;;39.80;23.98;;;11.80;99.90;;;;;;5093947;28;20052;-70
2021/09/08 04:41:25;;;;;;;40.70;24.98;;;11.80;99.90;;;;;;5092475;28;20377;-69
2021/09/08 04:43:51;;;;;;;41.00;23.35;;;11.80;99.90;;;;;;5092699;28;20047;-69
2021/09/08 04:46:16;;;;;;;39.90;23.58;;;11.80;99.90;;;;;;5093565;28;20488;-69
2021/09/08 04:48:42;;;;;;;38.28;23.73;;;11.80;99.90;;;;;;5093824;28;20551;-70
2021/09/08 04:51:07;;;;;;;44.30;26.70;;;11.90;99.90;;;;;;5093798;28;20028;-69
2021/09/08 04:53:33;;;;;;;42.08;24.63;;;11.90;99.90;;;;;;5093123;28;20036;-70
2021/09/08 04:55:59;;;;;;;42.00;25.77;;;12.00;99.90;;;;;;5096140;28;20024;-69
2021/09/08 04:58:24;;;;;;;40.10;23.30;;;12.00;99.90;;;;;;5097353;28;20093;-70
2021/09/08 05:00:50;;;;;;;40.20;24.38;;;12.00;99.90;;;;;;5097382;28;20055;-69
2021/09/08 05:03:16;;;;;;;37.20;23.92;;;12.00;99.90;;;;;;5097592;28;20024;-69
2021/09/08 05:05:41;;;;;;;41.30;24.95;;;12.00;99.90;;;;;;5097606;28;20039;-69
2021/09/08 05:08:07;;;;;;;44.80;27.00;;;12.00;99.90;;;;;;5097517;28;20024;-70
2021/09/08 05:10:32;;;;;;;37.55;23.92;;;12.00;99.90;;;;;;5097498;28;20032;-69
2021/09/08 05:12:58;;;;;;;37.70;24.92;;;12.10;99.90;;;;;;5096780;28;20105;-69
2021/09/08 05:15:24;;;;;;;35.10;21.85;;;12.10;99.90;;;;;;5097403;28;20016;-69
2021/09/08 05:17:49;;;;;;;42.00;26.48;;;12.10;99.90;;;;;;5097262;28;20103;-69
2021/09/08 05:20:15;;;;;;;43.55;26.55;;;12.20;99.90;;;;;;5097264;28;20035;-69
2021/09/08 05:22:40;;;;;;;41.05;26.67;;;12.30;99.90;;;;;;5097267;28;20436;-69
2021/09/08 05:25:07;;;;;;;42.33;25.08;;;12.30;99.90;;;;;;5096867;28;20024;-70
2021/09/08 05:27:32;;;;;;;42.97;26.38;;;12.40;99.90;;;;;;5097161;28;20020;-69
2021/09/08 05:29:58;;;;;;;46.10;27.27;;;12.50;99.90;;;;;;5097632;28;20130;-69
2021/09/08 05:32:23;;;;;;;45.90;26.25;;;12.60;99.90;;;;;;5096712;28;20058;-69
2021/09/08 05:34:49;;;;;;;42.78;27.08;;;12.70;99.90;;;;;;5095520;28;20028;-69
2021/09/08 05:37:15;;;;;;;41.80;25.98;;;12.80;99.90;;;;;;5095780;28;20024;-68
2021/09/08 05:39:40;;;;;;;39.92;25.73;;;12.90;99.90;;;;;;5096897;28;20085;-69
2021/09/08 05:42:06;;;;;;;36.95;24.60;;;13.10;99.90;;;;;;5096829;28;20030;-68
2021/09/08 05:44:31;;;;;;;36.08;24.17;;;13.30;99.90;;;;;;5095678;28;20416;-68
2021/09/08 05:46:57;;;;;;;33.70;21.40;;;13.60;99.90;;;;;;5093942;28;20032;-68
2021/09/08 05:49:22;;;;;;;29.48;19.48;;;14.00;99.90;;;;;;5092345;28;20025;-68
2021/09/08 05:51:48;;;;;;;30.17;18.35;;;14.60;99.90;;;;;;5075254;28;20035;-68
2021/09/08 05:54:13;;;;;;;23.95;16.42;;;15.60;99.90;;;;;;5081906;28;20111;-68
2021/09/08 05:56:39;;;;;;;26.38;16.10;;;17.00;99.90;;;;;;5096487;28;20516;-68
2021/09/08 05:59:05;;;;;;;23.35;15.55;;;18.10;99.90;;;;;;5096486;28;20028;-69
2021/09/08 06:01:30;;;;;;;23.55;13.77;;;19.20;99.90;;;;;;5096463;28;20032;-69
2021/09/08 06:03:56;;;;;;;22.25;14.15;;;19.80;99.90;;;;;;5077300;28;20024;-69
2021/09/08 06:06:21;;;;;;;22.27;14.32;;;20.30;99.90;;;;;;5094622;28;20036;-68
2021/09/08 06:08:47;;;;;;;19.80;13.85;;;20.20;99.90;;;;;;5077201;28;20030;-69
2021/09/08 06:11:12;;;;;;;21.08;14.32;;;20.50;99.90;;;;;;5096942;28;20047;-69
2021/09/08 06:13:38;;;;;;;20.92;14.18;;;20.40;99.90;;;;;;5097428;28;20497;-69
2021/09/08 06:16:04;;;;;;;22.02;13.40;;;20.20;99.90;;;;;;5114519;28;20073;-69
2021/09/08 06:18:30;;;;;;;17.92;13.25;;;19.90;99.90;;;;;;5097896;28;20095;-69
2021/09/08 06:20:56;;;;;;;20.88;13.20;;;20.50;99.90;;;;;;5098773;28;20060;-69
2021/09/08 06:23:22;;;;;;;17.42;13.82;;;21.00;99.90;;;;;;5095374;28;20107;-69
2021/09/08 06:25:47;;;;;;;17.75;13.35;;;21.40;99.90;;;;;;5095965;28;20028;-69
2021/09/08 06:28:13;;;;;;;22.05;13.45;;;22.50;99.90;;;;;;5095235;28;20028;-68
2021/09/08 06:30:39;;;;;;;18.98;13.25;;;22.90;99.90;;;;;;5095545;28;20373;-68
2021/09/08 06:33:04;;;;;;;16.42;13.32;;;22.90;99.90;;;;;;5093837;28;20028;-68
2021/09/08 06:35:30;;;;;;;23.58;13.52;;;23.40;99.90;;;;;;5095239;28;20377;-68
2021/09/08 06:37:55;;;;;;;16.83;13.90;;;23.90;99.90;;;;;;5094965;28;20032;-68
2021/09/08 06:40:21;;;;;;;17.90;13.32;;;23.80;99.90;;;;;;5097607;28;20018;-69
2021/09/08 06:42:46;;;;;;;19.02;12.82;;;24.00;99.90;;;;;;5093410;28;20055;-69
2021/09/08 06:45:12;;;;;;;18.35;12.85;;;24.40;99.90;;;;;;5095244;28;20478;-68
2021/09/08 06:47:38;;;;;;;21.55;13.70;;;24.60;99.90;;;;;;5093072;28;20409;-69
2021/09/08 06:50:04;;;;;;;19.25;13.82;;;24.60;99.90;;;;;;5090240;28;20078;-69
2021/09/08 06:52:30;;;;;;;21.40;12.95;;;24.60;99.90;;;;;;5094629;28;20065;-69
2021/09/08 06:54:56;;;;;;;18.30;13.27;;;25.50;99.90;;;;;;5094644;28;20020;-69
2021/09/08 06:57:22;;;;;;;20.00;13.80;;;25.70;99.90;;;;;;5093537;28;20024;-69
2021/09/08 06:59:48;;;;;;;17.30;13.48;;;24.90;99.90;;;;;;5094346;28;20027;-68
2021/09/08 07:02:13;;;;;;;21.83;13.30;;;25.30;99.90;;;;;;5093036;28;20032;-69
2021/09/08 07:04:39;;;;;;;16.90;12.60;;;25.60;99.90;;;;;;5074471;28;20386;-69
2021/09/08 07:07:04;;;;;;;15.48;12.75;;;25.70;99.90;;;;;;5089871;28;20034;-69
2021/09/08 07:09:30;;;;;;;17.75;12.88;;;25.30;99.90;;;;;;5083742;28;20481;-69
2021/09/08 07:11:56;;;;;;;15.70;13.07;;;26.20;99.90;;;;;;5074542;28;20032;-70
2021/09/08 07:14:22;;;;;;;20.95;13.55;;;27.00;99.90;;;;;;5074074;28;20473;-69
2021/09/08 07:16:47;;;;;;;21.90;13.18;;;27.60;99.90;;;;;;5090796;28;20069;-70
2021/09/08 07:19:13;;;;;;;18.20;13.02;;;28.00;99.90;;;;;;5093658;28;20023;-69
2021/09/08 07:21:38;;;;;;;19.63;13.45;;;27.30;99.90;;;;;;5088776;28;20042;-69
2021/09/08 07:24:04;;;;;;;15.50;13.00;;;27.60;99.90;;;;;;5088977;28;20397;-70
2021/09/08 07:26:33;;;;;;;19.02;13.75;;;27.20;99.90;;;;;;5092282;28;20028;-70
2021/09/08 07:29:00;;;;;;;17.13;13.30;;;27.80;99.90;;;;;;5089932;28;20038;-69
2021/09/08 07:31:26;;;;;;;17.42;13.40;;;27.60;99.90;;;;;;5093846;28;20031;-70
2021/09/08 07:33:51;;;;;;;17.20;12.73;;;27.00;99.90;;;;;;5093098;28;20435;-69
2021/09/08 07:36:17;;;;;;;19.15;13.43;;;26.90;99.90;;;;;;5092104;28;20027;-69
2021/09/08 07:38:42;;;;;;;16.15;12.73;;;27.10;99.90;;;;;;5092950;28;20051;-70
2021/09/08 07:41:08;;;;;;;18.20;13.68;;;27.60;99.90;;;;;;5092347;28;20024;-70
2021/09/08 07:43:34;;;;;;;16.48;13.30;;;27.60;99.90;;;;;;5057644;28;20028;-70
2021/09/08 07:45:59;;;;;;;17.80;12.85;;;28.10;99.90;;;;;;5092462;28;20066;-70
2021/09/08 07:48:25;;;;;;;15.88;13.35;;;28.20;99.90;;;;;;5074708;28;20031;-70
2021/09/08 07:50:50;;;;;;;18.30;13.23;;;28.50;99.80;;;;;;5091034;28;20027;-68
2021/09/08 07:53:16;;;;;;;14.65;12.50;;;28.80;98.80;;;;;;5092364;28;20059;-69
2021/09/08 07:55:42;;;;;;;16.95;12.95;;;28.40;98.80;;;;;;5091211;28;20461;-69
2021/09/08 07:58:07;;;;;;;20.23;13.32;;;28.20;99.90;;;;;;5093393;28;20024;-69
2021/09/08 08:00:35;;;;;;;17.38;12.63;;;28.50;99.80;;;;;;5092203;28;20028;-68
2021/09/08 08:03:02;;;;;;;18.33;13.02;;;28.90;99.00;;;;;;5091557;28;20025;-68
2021/09/08 08:05:30;;;;;;;15.70;11.98;;;29.20;99.20;;;;;;5091010;28;20020;-69
2021/09/08 08:07:55;;;;;;;19.25;13.50;;;29.50;97.30;;;;;;5090341;28;20028;-68
2021/09/08 08:10:21;;;;;;;19.23;12.70;;;29.20;97.50;;;;;;5090602;28;20508;-68
2021/09/08 08:12:47;;;;;;;14.48;12.43;;;29.10;97.60;;;;;;5091692;28;20069;-68
2021/09/08 08:15:14;;;;;;;15.80;12.52;;;29.40;97.70;;;;;;5091427;28;20016;-71
2021/09/08 08:17:41;;;;;;;18.75;12.70;;;29.20;97.70;;;;;;5092567;28;20563;-71
2021/09/08 08:20:08;;;;;;;19.20;12.50;;;28.20;98.80;;;;;;5090673;28;20055;-70
2021/09/08 08:22:35;;;;;;;18.58;11.90;;;27.80;99.90;;;;;;5080056;28;20012;-70
2021/09/08 08:25:02;;;;;;;17.00;12.02;;;27.90;99.90;;;;;;5089868;28;20116;-70
2021/09/08 08:27:28;;;;;;;17.48;12.70;;;29.00;99.20;;;;;;5092007;28;20012;-71
2021/09/08 08:29:53;;;;;;;15.20;12.40;;;28.80;98.50;;;;;;5095250;28;20107;-71
2021/09/08 08:32:19;;;;;;;16.27;12.02;;;28.20;99.60;;;;;;5098487;28;20020;-71
2021/09/08 08:34:44;;;;;;;19.75;13.23;;;29.20;99.20;;;;;;5096331;28;20036;-70
2021/09/08 08:37:10;;;;;;;15.80;11.88;;;29.50;98.30;;;;;;5094562;28;20020;-71
2021/09/08 08:39:38;;;;;;;16.38;11.80;;;29.90;98.00;;;;;;5095916;28;20028;-71
2021/09/08 08:42:06;;;;;;;17.55;11.77;;;29.80;98.60;;;;;;5095672;28;20147;-71
2021/09/08 08:44:32;;;;;;;13.00;11.60;;;29.50;98.00;;;;;;5096846;28;20020;-71
2021/09/08 08:46:58;;;;;;;16.77;13.18;;;29.70;98.20;;;;;;5096583;28;20054;-71
2021/09/08 08:49:24;;;;;;;15.40;11.85;;;29.50;98.10;;;;;;5095099;28;20032;-71
2021/09/08 08:51:50;;;;;;;16.35;12.15;;;29.50;98.20;;;;;;5096359;28;20028;-71
2021/09/08 08:54:16;;;;;;;17.10;11.88;;;29.40;99.00;;;;;;5096069;28;20113;-71
2021/09/08 08:56:42;;;;;;;16.48;12.52;;;29.50;98.70;;;;;;5097002;28;20535;-71
2021/09/08 08:59:08;;;;;;;17.67;12.07;;;29.90;97.30;;;;;;5078242;28;20024;-71
2021/09/08 09:01:33;;;;;;;15.52;12.73;;;30.50;96.60;;;;;;5061746;28;20020;-72
2021/09/08 09:04:03;;;;;;;15.88;12.25;;;29.90;97.50;;;;;;5095914;28;20069;-71
2021/09/08 09:06:30;;;;;;;15.93;11.68;;;29.70;97.80;;;;;;5093935;28;20031;-71
2021/09/08 09:08:59;;;;;;;15.23;11.15;;;30.20;97.10;;;;;;5096665;28;20024;-72
2021/09/08 09:11:25;;;;;;;18.33;12.20;;;30.30;96.50;;;;;;5096130;28;20032;-71
2021/09/08 09:13:50;;;;;;;15.90;12.77;;;30.20;96.90;;;;;;5096275;28;20051;-71
2021/09/08 09:16:16;;;;;;;16.40;12.60;;;30.80;96.20;;;;;;5094559;28;20039;-71
2021/09/08 09:18:43;;;;;;;18.17;12.25;;;30.80;97.50;;;;;;5077747;28;20473;-70
2021/09/08 09:21:11;;;;;;;17.50;13.27;;;31.40;95.60;;;;;;5096060;28;20028;-70
2021/09/08 09:23:52;;;;;;;30.05;13.95;;;30.90;95.60;;;;;;5096228;28;20487;-71
2021/09/08 09:26:24;;;;;;;17.05;11.88;;;30.70;95.80;;;;;;5094215;28;20032;-71
2021/09/08 09:28:50;;;;;;;17.08;12.93;;;30.60;96.50;;;;;;5096187;28;20121;-70
2021/09/08 09:31:20;;;;;;;15.73;12.38;;;30.50;96.90;;;;;;5095671;28;20097;-71
2021/09/08 09:33:48;;;;;;;15.55;12.52;;;30.40;96.50;;;;;;5093843;28;20066;-70
2021/09/08 09:36:18;;;;;;;14.20;11.50;;;30.00;97.60;;;;;;5095940;28;20024;-70
2021/09/08 09:38:44;;;;;;;16.40;12.15;;;29.90;97.80;;;;;;5073905;28;20138;-70
2021/09/08 09:41:10;;;;;;;14.60;11.30;;;30.60;96.10;;;;;;5084511;28;20020;-69
2021/09/08 09:43:41;;;;;;;15.20;11.30;;;30.40;96.20;;;;;;5093977;28;20115;-69
2021/09/08 09:46:08;;;;;;;17.00;11.77;;;31.00;97.60;;;;;;5095871;28;20151;-69
2021/09/08 09:48:34;;;;;;;17.38;11.98;;;31.40;95.20;;;;;;5093785;28;20036;-69
2021/09/08 09:51:16;;;;;;;15.95;12.38;;;31.00;95.50;;;;;;5095375;28;20386;-70
2021/09/08 09:53:42;;;;;;;13.75;11.15;;;31.00;95.90;;;;;;5095515;28;20020;-69
2021/09/08 09:56:09;;;;;;;20.80;12.30;;;31.20;96.60;;;;;;5096382;28;20043;-69
2021/09/08 09:58:36;;;;;;;14.52;11.15;;;30.80;97.10;;;;;;5095416;28;20486;-70
2021/09/08 10:01:04;;;;;;;16.13;11.85;;;31.10;96.80;;;;;;5095203;28;20099;-70
2021/09/08 10:03:29;;;;;;;12.13;10.70;;;31.00;96.00;;;;;;5095552;28;20450;-71
2021/09/08 10:05:57;;;;;;;16.50;11.55;;;31.60;94.80;;;;;;5093516;28;20089;-71
2021/09/08 10:08:27;;;;;;;12.73;11.00;;;31.70;94.00;;;;;;5094340;28;20391;-71
2021/09/08 10:10:55;;;;;;;14.90;12.48;;;31.60;94.50;;;;;;5095627;28;20465;-69
2021/09/08 10:13:26;;;;;;;16.50;11.82;;;31.60;94.60;;;;;;5076957;28;20413;-70
2021/09/08 10:15:53;;;;;;;15.10;11.27;;;31.00;93.70;;;;;;5094881;28;20066;-70
2021/09/08 10:18:24;;;;;;;17.13;10.73;;;30.90;94.50;;;;;;5065879;28;20398;-69
2021/09/08 10:20:58;;;;;;;17.33;11.57;;;30.70;94.50;;;;;;5092085;28;20024;-69
2021/09/08 10:23:24;;;;;;;15.32;11.70;;;31.40;95.50;;;;;;5091513;28;20035;-69
2021/09/08 10:25:50;;;;;;;15.80;11.88;;;31.60;95.00;;;;;;5094807;28;20028;-70
2021/09/08 10:28:18;;;;;;;14.98;11.88;;;31.90;93.40;;;;;;5094425;28;20055;-71
2021/09/08 10:30:44;;;;;;;14.30;11.55;;;31.80;94.20;;;;;;5094020;28;20039;-69
2021/09/08 10:33:11;;;;;;;13.00;11.25;;;31.60;93.60;;;;;;5092735;28;20028;-70
2021/09/08 10:35:40;;;;;;;17.85;11.77;;;31.40;94.40;;;;;;5093395;28;20089;-69
2021/09/08 10:38:16;;;;;;;14.00;11.48;;;31.30;93.90;;;;;;5093693;28;20028;-70
2021/09/08 10:40:43;;;;;;;14.52;11.15;;;31.10;95.30;;;;;;5094803;28;20027;-69
2021/09/08 10:43:09;;;;;;;16.23;11.15;;;31.20;95.00;;;;;;5092361;28;20098;-70
2021/09/08 10:45:35;;;;;;;14.32;11.30;;;31.50;94.10;;;;;;5092032;28;20417;-70
2021/09/08 10:48:03;;;;;;;14.68;10.73;;;31.90;93.50;;;;;;5091968;28;20115;-69
2021/09/08 10:56:03;;;;;;;12.38;10.77;;;32.20;93.80;;;;;;5070725;28;20846;-69
2021/09/08 10:58:54;;;;;;;12.00;10.77;;;32.10;92.30;;;;;;5069340;28;20057;-69
2021/09/08 11:01:19;;;;;;;12.35;10.85;;;31.70;94.00;;;;;;5068760;28;20052;-69
2021/09/08 11:03:45;;;;;;;16.20;11.93;;;31.30;93.00;;;;;;5068416;28;20415;-69
2021/09/08 11:06:11;;;;;;;14.88;10.75;;;30.80;94.00;;;;;;5070575;28;20040;-68
2021/09/08 11:08:36;;;;;;;14.55;11.55;;;30.50;94.70;;;;;;5067893;28;20029;-69
2021/09/08 11:11:06;;;;;;;16.27;12.13;;;30.50;95.80;;;;;;5069381;28;20090;-68
2021/09/08 11:13:33;;;;;;;13.50;11.38;;;30.60;94.50;;;;;;5069383;28;20050;-68
2021/09/08 11:15:58;;;;;;;14.25;11.25;;;30.40;93.80;;;;;;5067706;28;20032;-69
2021/09/08 11:18:34;;;;;;;15.00;11.10;;;29.50;93.30;;;;;;5067903;28;20381;-68
2021/09/08 11:21:03;;;;;;;14.68;10.27;;;29.00;94.00;;;;;;5068724;28;20021;-68
2021/09/08 11:23:29;;;;;;;15.63;9.95;;;29.40;95.40;;;;;;5067520;28;20359;-68
2021/09/08 11:25:55;;;;;;;16.58;10.15;;;29.10;93.80;;;;;;5068069;28;20032;-68
2021/09/08 11:28:20;;;;;;;12.32;9.48;;;29.10;94.60;;;;;;5069109;28;20089;-68
2021/09/08 11:30:46;;;;;;;10.32;9.02;;;29.00;94.50;;;;;;5067311;28;20119;-68
2021/09/08 11:33:13;;;;;;;12.00;9.50;;;28.90;95.20;;;;;;5067655;28;20064;-68
2021/09/08 11:35:43;;;;;;;10.10;8.65;;;29.20;93.70;;;;;;5067805;28;20037;-68
2021/09/08 11:38:12;;;;;;;10.88;9.40;;;29.30;93.80;;;;;;5068489;28;20025;-68
2021/09/08 11:40:40;;;;;;;12.68;10.30;;;29.10;94.70;;;;;;5067591;28;20020;-69
2021/09/08 11:43:06;;;;;;;13.93;10.15;;;28.80;93.90;;;;;;5068856;28;20028;-68
2021/09/08 11:45:32;;;;;;;13.23;9.55;;;28.80;93.90;;;;;;5068827;28;20478;-68
2021/09/08 11:47:58;;;;;;;16.98;10.35;;;28.80;95.20;;;;;;5067819;28;20406;-68
2021/09/08 11:50:23;;;;;;;10.98;9.77;;;28.70;94.50;;;;;;5068892;28;20398;-68
2021/09/08 11:52:59;;;;;;;14.73;10.32;;;28.90;97.60;;;;;;5069236;28;20025;-67
2021/09/08 11:55:29;;;;;;;14.57;11.48;;;29.00;95.40;;;;;;5065311;28;20043;-67
2021/09/08 11:58:14;;;;;;;13.43;10.02;;;29.10;95.50;;;;;;5070387;28;20036;-69
2021/09/08 12:00:53;;;;;;;13.32;10.40;;;28.80;95.10;;;;;;5068609;28;20035;-69
2021/09/08 12:03:19;;;;;;;15.00;11.02;;;28.50;96.30;;;;;;5068802;28;20012;-69
2021/09/08 12:05:44;;;;;;;18.85;10.30;;;28.40;96.30;;;;;;5064266;28;20087;-69
2021/09/08 12:08:10;;;;;;;13.88;9.85;;;28.30;96.20;;;;;;5055557;28;20083;-69
2021/09/08 12:10:37;;;;;;;14.40;9.38;;;28.30;94.70;;;;;;5053688;28;20067;-72
2021/09/08 12:13:03;;;;;;;12.57;9.85;;;28.20;94.80;;;;;;5055544;28;20447;-72
2021/09/08 12:15:33;;;;;;;14.52;10.30;;;28.30;96.20;;;;;;5044479;28;20026;-72
2021/09/08 12:18:15;;;;;;;15.65;10.25;;;28.30;95.60;;;;;;5040148;28;20029;-72
2021/09/08 12:20:41;;;;;;;13.57;9.97;;;28.30;96.90;;;;;;5048533;28;20021;-72
2021/09/08 12:23:31;;;;;;;11.35;10.00;;;27.90;95.60;;;;;;5055174;28;20756;-71
2021/09/08 12:26:07;;;;;;;12.80;10.15;;;28.10;98.10;;;;;;5054847;28;20033;-72
2021/09/08 12:28:33;;;;;;;11.52;10.30;;;28.10;96.10;;;;;;5054944;28;20033;-71
2021/09/08 12:31:16;;;;;;;13.30;9.88;;;28.30;97.20;;;;;;5053685;28;20025;-72